Time;durP1;ratioP1;P1;durP2;ratioP2;P2;SDS_P1;SDS_P2;PMS_P1;PMS_P2;Temp;Humidity;BMP_temperature;BMP_pressure;BME280_temperature;BME280_humidity;BME280_pressure;Samples;Min_cycle;Max_cycle;Signal;HPM_P1;HPM_P2
2023/05/16 00:00:47;;;;;;;9.70;6.83;;;11.70;99.90;;;12.48;100.00;97970.69;4924909;29;21040;-78
2023/05/16 00:03:16;;;;;;;9.73;6.67;;;11.70;99.90;;;12.45;100.00;97971.09;4927062;29;20506;-78
2023/05/16 00:05:45;;;;;;;10.73;6.60;;;11.70;99.90;;;12.45;100.00;97971.09;4923613;29;20521;-78
2023/05/16 00:08:14;;;;;;;11.00;6.30;;;11.70;99.90;;;12.45;100.00;97973.72;4921779;29;20498;-79
2023/05/16 00:10:42;;;;;;;14.70;7.30;;;11.80;99.90;;;12.48;100.00;97977.75;4925413;29;21083;-78
2023/05/16 00:13:11;;;;;;;9.47;5.80;;;11.70;99.90;;;12.50;100.00;97973.91;4927136;29;20554;-78
2023/05/16 00:15:43;;;;;;;12.07;5.90;;;11.80;99.90;;;12.53;100.00;97973.50;4925296;29;20553;-78
2023/05/16 00:18:14;;;;;;;9.57;6.00;;;11.80;99.90;;;12.55;100.00;97974.13;4922538;29;20499;-78
2023/05/16 00:20:42;;;;;;;7.90;5.27;;;11.80;99.90;;;12.58;100.00;97978.16;4921781;29;20463;-78
2023/05/16 00:23:11;;;;;;;13.43;5.53;;;11.80;99.90;;;12.60;100.00;97984.81;4922846;29;20743;-78
2023/05/16 00:25:40;;;;;;;8.00;5.30;;;11.80;99.90;;;12.63;100.00;97978.38;4923918;29;20778;-78
2023/05/16 00:28:08;;;;;;;9.30;5.80;;;11.80;99.90;;;12.63;100.00;97984.41;4920880;29;20553;-78
2023/05/16 00:30:37;;;;;;;13.77;6.53;;;12.00;99.90;;;12.67;100.00;97978.78;4921487;29;20474;-78
2023/05/16 00:33:07;;;;;;;8.53;5.50;;;12.00;99.90;;;12.69;100.00;97976.75;4922364;29;21110;-77
2023/05/16 00:35:35;;;;;;;9.60;5.87;;;12.00;99.90;;;12.73;100.00;97972.72;4921517;29;20482;-78
2023/05/16 00:38:04;;;;;;;10.80;5.90;;;12.00;99.90;;;12.75;100.00;97974.13;4920737;29;20923;-78
2023/05/16 00:40:33;;;;;;;18.83;7.30;;;12.10;99.90;;;12.73;100.00;97968.28;4922321;29;20629;-78
2023/05/16 00:43:01;;;;;;;11.10;6.10;;;12.10;99.90;;;12.71;100.00;97980.78;4920395;29;20589;-78
2023/05/16 00:45:32;;;;;;;24.43;7.10;;;12.10;99.90;;;12.72;100.00;97981.59;4917723;29;20561;-78
2023/05/16 00:48:00;;;;;;;13.33;5.87;;;12.00;99.90;;;12.71;100.00;97979.97;4918693;29;20984;-78
2023/05/16 00:50:30;;;;;;;14.10;6.90;;;12.00;99.90;;;12.71;100.00;97972.09;4920072;29;20498;-78
2023/05/16 00:52:59;;;;;;;12.03;6.80;;;12.10;99.90;;;12.71;100.00;97972.91;4918145;29;20471;-78
2023/05/16 00:55:28;;;;;;;8.73;5.37;;;12.10;99.90;;;12.70;100.00;97984.44;4917719;29;20471;-78
2023/05/16 00:57:58;;;;;;;9.70;6.73;;;12.10;99.90;;;12.72;100.00;97990.28;4917271;29;20590;-78
2023/05/16 01:00:28;;;;;;;9.43;6.03;;;12.10;99.90;;;12.74;100.00;97987.47;4917315;29;20498;-78
2023/05/16 01:02:57;;;;;;;13.10;6.27;;;12.10;99.90;;;12.78;100.00;97993.91;4914976;29;20924;-78
2023/05/16 01:05:25;;;;;;;10.70;5.80;;;12.10;99.90;;;12.80;100.00;97994.53;4920887;29;20815;-78
2023/05/16 01:07:56;;;;;;;7.80;5.13;;;12.20;99.90;;;12.80;100.00;97984.03;4915239;29;20489;-79
2023/05/16 01:10:31;;;;;;;9.60;5.80;;;12.10;99.90;;;12.81;100.00;97983.00;4917642;29;20567;-79
2023/05/16 01:13:11;;;;;;;9.10;4.53;;;12.10;99.90;;;12.82;100.00;97982.00;4916883;29;20462;-78
2023/05/16 01:15:52;;;;;;;9.93;4.87;;;12.10;99.90;;;12.82;100.00;97989.88;4917643;29;20470;-77
2023/05/16 01:18:34;;;;;;;9.53;4.90;;;12.10;99.90;;;12.83;100.00;97983.63;4917513;29;20616;-78
2023/05/16 01:21:16;;;;;;;10.43;4.93;;;12.10;99.90;;;12.83;100.00;97989.69;4917302;29;20696;-78
2023/05/16 01:23:58;;;;;;;8.20;4.60;;;12.20;99.90;;;12.80;100.00;97973.53;4914611;29;20608;-78
2023/05/16 01:26:31;;;;;;;8.30;4.40;;;12.30;99.90;;;12.70;100.00;97983.63;4915774;29;20478;-78
2023/05/16 01:29:02;;;;;;;6.47;3.90;;;12.10;99.90;;;12.72;100.00;97981.59;4914456;29;20466;-78
2023/05/16 01:31:31;;;;;;;8.60;4.10;;;12.10;99.90;;;12.69;100.00;97984.63;4917373;29;20589;-78
2023/05/16 01:34:00;;;;;;;7.17;4.00;;;12.10;99.90;;;12.66;100.00;97980.59;4919751;29;20569;-78
2023/05/16 01:36:43;;;;;;;7.33;4.23;;;12.00;99.90;;;12.66;100.00;97983.22;4915160;29;20478;-78
2023/05/16 01:39:22;;;;;;;9.60;5.10;;;12.00;99.90;;;12.69;100.00;97993.31;4916048;29;20793;-78
2023/05/16 01:42:03;;;;;;;10.60;4.67;;;12.10;99.90;;;12.63;100.00;97988.06;4914723;29;20463;-78
2023/05/16 01:44:37;;;;;;;9.27;5.03;;;12.00;99.90;;;12.61;100.00;97981.19;4916559;29;20475;-78
2023/05/16 01:47:12;;;;;;;6.97;4.20;;;12.00;99.90;;;12.66;100.00;97990.28;4915814;29;21097;-78
2023/05/16 01:49:50;;;;;;;9.63;3.80;;;11.90;99.90;;;12.65;100.00;97986.84;4917857;29;20470;-78
2023/05/16 01:52:27;;;;;;;7.10;4.27;;;12.00;99.90;;;12.67;100.00;97986.66;4914518;29;20577;-78
2023/05/16 01:55:00;;;;;;;6.90;4.53;;;11.90;99.90;;;12.63;100.00;97977.56;4917240;29;20459;-78
2023/05/16 01:57:30;;;;;;;8.53;4.67;;;11.90;99.90;;;12.60;100.00;97979.56;4915469;29;20538;-78
2023/05/16 01:59:59;;;;;;;6.73;4.90;;;12.00;99.90;;;12.55;100.00;97982.00;4916521;29;20551;-78
2023/05/16 02:02:28;;;;;;;8.77;4.50;;;11.90;99.90;;;12.57;100.00;97993.09;4918371;29;20504;-77
2023/05/16 02:04:57;;;;;;;9.27;3.97;;;11.90;99.90;;;12.58;100.00;97993.91;4912178;29;20502;-78
2023/05/16 02:07:26;;;;;;;10.30;4.13;;;12.00;99.90;;;12.58;100.00;97997.34;4918453;29;20901;-78
2023/05/16 02:09:55;;;;;;;7.87;4.20;;;11.90;99.90;;;12.56;100.00;97990.69;4917118;29;20478;-78
2023/05/16 02:12:24;;;;;;;8.93;4.30;;;11.90;99.90;;;12.56;100.00;97993.31;4900412;29;20994;-78
2023/05/16 02:14:55;;;;;;;15.57;3.60;;;11.90;99.90;;;12.57;100.00;98000.16;4920311;29;20561;-78
2023/05/16 02:17:25;;;;;;;14.70;4.83;;;11.90;99.90;;;12.58;100.00;97996.53;4918806;29;20481;-78
2023/05/16 02:19:54;;;;;;;15.30;4.10;;;11.90;99.90;;;12.57;100.00;97993.09;4919877;29;20900;-78
2023/05/16 02:22:24;;;;;;;6.90;4.60;;;11.90;99.90;;;12.58;100.00;97992.09;4920225;29;20466;-78
2023/05/16 02:24:53;;;;;;;7.60;4.00;;;11.90;99.90;;;12.56;100.00;97991.47;4920128;29;20549;-78
2023/05/16 02:27:22;;;;;;;6.10;3.67;;;11.90;99.90;;;12.49;100.00;97990.69;4918671;29;20989;-78
2023/05/16 02:29:50;;;;;;;6.60;3.43;;;11.90;99.90;;;12.50;100.00;97988.84;4917785;29;20471;-78
2023/05/16 02:32:21;;;;;;;6.00;3.60;;;11.80;99.90;;;12.54;100.00;97996.13;4920026;29;20535;-78
2023/05/16 02:34:51;;;;;;;7.10;3.40;;;11.90;99.90;;;12.51;100.00;97986.03;4920980;29;20517;-78
2023/05/16 02:37:20;;;;;;;6.83;3.60;;;11.90;99.90;;;12.52;100.00;97995.53;4923192;29;20889;-78
2023/05/16 02:39:49;;;;;;;6.00;3.37;;;11.90;99.90;;;12.52;100.00;97998.16;4922785;29;21044;-78
2023/05/16 02:42:17;;;;;;;5.37;3.30;;;11.90;99.90;;;12.54;100.00;98001.38;4924682;29;20541;-78
2023/05/16 02:44:46;;;;;;;7.43;3.63;;;12.00;99.90;;;12.54;100.00;98006.63;4923229;29;20902;-78
2023/05/16 02:47:15;;;;;;;3.97;2.87;;;11.90;99.90;;;12.53;100.00;97999.75;4923696;29;20581;-78
2023/05/16 02:49:45;;;;;;;4.73;2.80;;;11.90;99.90;;;12.54;100.00;97998.75;4922785;29;20559;-78
2023/05/16 02:52:15;;;;;;;3.40;2.80;;;11.80;99.90;;;12.56;100.00;97999.34;4921286;29;20982;-78
2023/05/16 02:54:43;;;;;;;7.03;2.40;;;11.90;99.90;;;12.56;100.00;98001.97;4921311;29;20688;-78
2023/05/16 02:57:19;;;;;;;7.70;2.50;;;11.90;99.90;;;12.57;100.00;98000.16;4919691;29;20482;-78
2023/05/16 02:59:47;;;;;;;4.23;2.60;;;11.90;99.90;;;12.59;100.00;97998.97;4921473;29;21585;-78
2023/05/16 03:02:16;;;;;;;4.30;2.80;;;11.90;99.90;;;12.57;100.00;98000.16;4919814;29;20474;-78
2023/05/16 03:04:46;;;;;;;4.63;2.40;;;11.90;99.90;;;12.54;100.00;98001.38;4919365;29;21059;-78
2023/05/16 03:07:15;;;;;;;5.30;3.50;;;11.90;99.90;;;12.53;100.00;98005.00;4922760;29;20598;-75
2023/05/16 03:09:43;;;;;;;5.93;3.40;;;11.90;99.90;;;12.51;100.00;98001.78;4920867;29;20591;-78
2023/05/16 03:12:13;;;;;;;2.87;1.97;;;11.90;99.90;;;12.50;100.00;98005.41;4921110;29;20996;-77
2023/05/16 03:14:43;;;;;;;4.83;3.17;;;11.90;99.90;;;12.49;100.00;98003.00;4923659;29;20849;-78
2023/05/16 03:17:12;;;;;;;3.90;1.80;;;11.90;99.90;;;12.48;100.00;98010.03;4923546;29;20478;-79
2023/05/16 03:19:41;;;;;;;5.20;1.77;;;11.90;99.90;;;12.42;100.00;98002.16;4923193;29;21005;-78
2023/05/16 03:22:12;;;;;;;2.20;1.53;;;11.90;99.90;;;12.41;100.00;98006.59;4922443;29;21240;-79
2023/05/16 03:24:40;;;;;;;3.07;1.80;;;11.80;99.90;;;12.40;100.00;98002.34;4922161;29;20920;-77
2023/05/16 03:27:09;;;;;;;2.43;1.50;;;11.80;99.90;;;12.39;100.00;98007.81;4917983;29;20659;-78
2023/05/16 03:29:38;;;;;;;5.60;1.70;;;11.80;99.90;;;12.35;100.00;98007.41;4917505;29;20466;-79
2023/05/16 03:32:08;;;;;;;1.60;1.50;;;11.80;99.90;;;12.34;100.00;98015.47;4917590;29;20900;-79
2023/05/16 03:34:37;;;;;;;1.40;1.30;;;11.80;99.90;;;12.34;100.00;98015.47;4916005;29;20578;-78
2023/05/16 03:37:07;;;;;;;3.03;1.40;;;11.80;99.90;;;12.32;100.00;98015.66;4916193;29;20463;-78
2023/05/16 03:39:37;;;;;;;4.83;1.57;;;11.70;99.90;;;12.33;100.00;98025.13;4917936;29;20850;-78
2023/05/16 03:42:07;;;;;;;2.03;1.33;;;11.70;99.90;;;12.33;100.00;98021.69;4916784;29;20474;-78
2023/05/16 03:44:35;;;;;;;2.80;1.30;;;11.70;99.90;;;12.34;100.00;98021.50;4917362;29;20505;-79
2023/05/16 03:47:05;;;;;;;1.43;1.20;;;11.70;99.90;;;12.32;100.00;98028.75;4915667;29;20589;-79
2023/05/16 03:49:36;;;;;;;2.17;1.63;;;11.70;99.90;;;12.36;100.00;98023.91;4919655;29;21509;-78
2023/05/16 03:52:06;;;;;;;1.93;1.20;;;11.80;99.90;;;12.33;100.00;98024.31;4918556;29;20883;-77
2023/05/16 03:54:36;;;;;;;1.90;1.50;;;11.80;99.90;;;12.30;100.00;98025.53;4901026;29;20866;-79
2023/05/16 03:57:06;;;;;;;1.10;1.00;;;11.70;99.90;;;12.25;100.00;98033.16;4922399;29;20527;-79
2023/05/16 03:59:35;;;;;;;2.90;1.40;;;11.60;99.90;;;12.26;100.00;98033.97;4922134;29;21009;-79
2023/05/16 04:02:04;;;;;;;1.33;1.23;;;11.70;99.90;;;12.20;100.00;98040.84;4923434;29;20953;-79
2023/05/16 04:04:33;;;;;;;2.60;1.10;;;11.50;99.90;;;12.22;100.00;98041.44;4905172;29;20505;-79
2023/05/16 04:07:01;;;;;;;15.33;1.13;;;11.60;99.90;;;12.23;100.00;98035.19;4922764;29;20493;-79
2023/05/16 04:09:30;;;;;;;1.30;1.20;;;11.60;99.90;;;12.20;100.00;98046.09;4922676;29;20499;-79
2023/05/16 04:12:00;;;;;;;1.40;1.30;;;11.60;99.90;;;12.23;100.00;98056.16;4920362;29;20738;-79
2023/05/16 04:14:30;;;;;;;1.40;1.10;;;11.60;99.90;;;12.23;100.00;98047.50;4921719;29;20750;-76
2023/05/16 04:16:59;;;;;;;3.47;1.60;;;11.60;99.90;;;12.24;100.00;98047.31;4922708;29;20549;-78
2023/05/16 04:19:27;;;;;;;1.23;1.07;;;11.60;99.90;;;12.21;100.00;98050.31;4921065;29;20537;-79
2023/05/16 04:21:56;;;;;;;4.80;1.20;;;11.70;99.90;;;12.23;100.00;98044.88;4921125;29;20624;-79
2023/05/16 04:24:27;;;;;;;1.30;1.10;;;11.60;99.90;;;12.25;100.00;98043.66;4920019;29;20542;-79
2023/05/16 04:26:57;;;;;;;1.50;1.10;;;11.60;99.90;;;12.28;100.00;98048.53;4915869;29;21141;-79
2023/05/16 04:29:27;;;;;;;14.77;8.00;;;11.60;99.90;;;12.29;100.00;98054.56;4917829;29;20473;-79
2023/05/16 04:31:56;;;;;;;1.30;1.10;;;11.60;99.90;;;12.26;100.00;98057.59;4917379;29;21068;-78
2023/05/16 04:34:26;;;;;;;2.00;1.03;;;11.70;99.90;;;12.24;100.00;98051.75;4917782;29;20572;-78
2023/05/16 04:36:56;;;;;;;1.20;1.10;;;11.60;99.90;;;12.20;100.00;98064.44;4917754;29;20462;-79
2023/05/16 04:39:24;;;;;;;2.17;1.40;;;11.60;99.90;;;12.23;100.00;98063.22;4917499;29;20479;-79
2023/05/16 04:41:53;;;;;;;4.20;1.30;;;11.60;99.90;;;12.25;100.00;98064.63;4916417;28;21049;-78
2023/05/16 04:44:21;;;;;;;1.00;0.90;;;11.60;99.90;;;12.24;100.00;98070.91;4916569;29;20503;-79
2023/05/16 04:46:52;;;;;;;1.20;1.10;;;11.60;99.90;;;12.24;100.00;98068.28;4923055;29;20462;-79
2023/05/16 04:49:22;;;;;;;1.30;1.20;;;11.60;99.90;;;12.23;100.00;98066.66;4926372;29;20525;-79
2023/05/16 04:51:51;;;;;;;1.53;0.90;;;11.60;99.90;;;12.19;100.00;98070.66;4925215;29;20569;-79
2023/05/16 04:54:20;;;;;;;1.10;1.00;;;11.60;99.90;;;12.20;100.00;98072.28;4927874;29;20613;-79
2023/05/16 04:56:50;;;;;;;2.00;0.97;;;11.60;99.90;;;12.15;100.00;98074.69;4927879;29;20551;-79
2023/05/16 04:59:20;;;;;;;2.23;1.10;;;11.60;99.90;;;12.16;100.00;98078.94;4927465;29;20569;-79
2023/05/16 05:01:48;;;;;;;1.20;0.90;;;11.50;99.90;;;12.10;100.00;98077.91;4926496;29;20895;-79
2023/05/16 05:04:18;;;;;;;2.20;1.73;;;11.50;99.90;;;12.08;100.00;98074.66;4926332;29;20491;-79
2023/05/16 05:06:47;;;;;;;0.80;0.80;;;11.50;99.90;;;12.09;100.00;98080.72;4927821;29;20548;-79
2023/05/16 05:09:16;;;;;;;9.23;1.73;;;11.60;99.90;;;12.10;100.00;98072.66;4926242;29;20470;-79
2023/05/16 05:11:46;;;;;;;1.00;0.80;;;11.50;99.90;;;12.05;100.00;98076.88;4925740;29;20526;-79
2023/05/16 05:14:15;;;;;;;2.50;0.87;;;11.50;99.90;;;12.09;100.00;98080.72;4927474;29;20510;-79
2023/05/16 05:16:43;;;;;;;1.20;0.80;;;11.50;99.90;;;12.09;100.00;98080.72;4926555;29;20554;-79
2023/05/16 05:19:12;;;;;;;1.40;0.90;;;11.50;99.90;;;12.13;100.00;98092.44;4924412;29;20502;-79
2023/05/16 05:21:42;;;;;;;1.23;0.80;;;11.60;99.90;;;12.14;100.00;98094.06;4927213;29;20474;-79
2023/05/16 05:24:11;;;;;;;1.23;1.10;;;11.50;99.90;;;12.10;100.00;98098.06;4927752;29;20486;-79
2023/05/16 05:26:39;;;;;;;0.83;0.83;;;11.60;99.90;;;11.98;100.00;98107.47;4926795;29;20542;-79
2023/05/16 05:29:08;;;;;;;1.17;0.80;;;11.50;99.90;;;11.96;100.00;98112.94;4927316;29;21006;-79
2023/05/16 05:31:37;;;;;;;4.60;1.47;;;11.50;99.90;;;11.99;100.00;98116.97;4926349;29;20477;-79
2023/05/16 05:34:06;;;;;;;0.97;0.90;;;11.50;99.90;;;12.00;100.00;98118.59;4926984;29;20486;-79
2023/05/16 05:36:35;;;;;;;1.07;0.97;;;11.50;99.90;;;11.96;100.00;98122.59;4926945;29;20509;-79
2023/05/16 05:39:05;;;;;;;1.23;0.80;;;11.50;99.90;;;11.94;100.00;98122.00;4927322;29;20470;-79
2023/05/16 05:41:34;;;;;;;0.93;0.83;;;11.40;99.90;;;11.94;100.00;98120.16;4926674;29;20475;-79
2023/05/16 05:44:03;;;;;;;1.00;0.90;;;11.40;99.90;;;11.90;100.00;98123.38;4926815;29;20463;-79
2023/05/16 05:46:32;;;;;;;0.90;0.80;;;11.40;99.90;;;11.83;100.00;98122.53;4926056;29;21100;-80
2023/05/16 05:49:01;;;;;;;1.20;1.10;;;11.30;99.90;;;11.80;100.00;98128.94;4926759;29;20831;-79
2023/05/16 05:51:31;;;;;;;1.90;0.90;;;11.30;99.90;;;11.83;100.00;98131.19;4925782;29;21158;-79
2023/05/16 05:53:59;;;;;;;0.90;0.90;;;11.30;99.90;;;11.83;100.00;98133.00;4926005;29;20893;-79
2023/05/16 05:56:30;;;;;;;1.10;0.97;;;11.30;99.90;;;11.85;100.00;98136.22;4926489;29;20897;-79
2023/05/16 05:58:59;;;;;;;1.07;0.90;;;11.30;99.90;;;11.88;100.00;98135.84;4924814;29;20479;-79
2023/05/16 06:01:28;;;;;;;1.37;0.97;;;11.30;99.90;;;11.86;100.00;98137.88;4909802;29;20509;-80
2023/05/16 06:03:57;;;;;;;1.63;1.10;;;11.30;99.90;;;11.87;100.00;98144.72;4926095;29;20467;-80
2023/05/16 06:06:30;;;;;;;1.40;1.10;;;11.30;99.90;;;11.87;100.00;98145.50;4926064;29;21270;-80
2023/05/16 06:08:59;;;;;;;1.00;0.90;;;11.30;99.90;;;11.77;100.00;98144.25;4925301;29;20942;-78
2023/05/16 06:11:29;;;;;;;1.17;1.00;;;11.30;99.90;;;11.74;100.00;98155.09;4925416;29;20637;-80
2023/05/16 06:13:57;;;;;;;3.27;0.90;;;11.20;99.90;;;11.74;100.00;98161.16;4926302;29;20878;-79
2023/05/16 06:16:26;;;;;;;1.10;1.00;;;11.30;99.90;;;11.69;100.00;98157.47;4925599;29;20546;-78
2023/05/16 06:18:56;;;;;;;1.00;0.90;;;11.10;99.90;;;11.70;100.00;98165.13;4927066;29;20477;-79
2023/05/16 06:21:24;;;;;;;1.07;0.97;;;11.20;99.90;;;11.69;100.00;98173.19;4925578;29;20558;-79
2023/05/16 06:23:53;;;;;;;1.10;1.00;;;11.10;99.90;;;11.69;100.00;98173.19;4924904;29;20886;-79
2023/05/16 06:26:22;;;;;;;1.20;1.10;;;11.20;99.90;;;11.69;100.00;98181.84;4927103;29;20530;-81
2023/05/16 06:28:52;;;;;;;1.60;1.10;;;11.20;99.90;;;11.69;100.00;98175.81;4926648;29;21017;-79
2023/05/16 06:31:21;;;;;;;1.53;1.37;;;11.20;99.90;;;11.62;100.00;98183.63;4926068;29;20480;-79
2023/05/16 06:33:50;;;;;;;2.70;1.20;;;11.10;99.90;;;11.61;100.00;98182.00;4925734;29;20494;-79
2023/05/16 06:36:19;;;;;;;1.40;1.30;;;11.10;99.90;;;11.54;100.00;98181.13;4926928;29;20553;-79
2023/05/16 06:38:48;;;;;;;1.40;1.20;;;11.10;99.90;;;11.50;100.00;98185.94;4925727;29;20494;-79
2023/05/16 06:41:17;;;;;;;0.80;0.70;;;11.00;99.90;;;11.47;100.00;98196.78;4925954;29;20470;-79
2023/05/16 06:43:45;;;;;;;1.20;1.10;;;10.90;99.90;;;11.52;100.00;98181.31;4926959;29;20505;-80
2023/05/16 06:46:15;;;;;;;1.20;1.10;;;10.90;99.90;;;11.54;100.00;98176.72;4926193;29;20506;-79
2023/05/16 06:48:44;;;;;;;1.20;1.10;;;11.00;99.90;;;11.49;100.00;98192.16;4908947;29;20505;-78
2023/05/16 06:51:13;;;;;;;1.30;1.13;;;10.90;99.90;;;11.41;100.00;98191.50;4926810;29;20459;-79
2023/05/16 06:53:42;;;;;;;1.27;1.17;;;10.90;99.90;;;11.40;100.00;98195.09;4925910;29;20478;-79
2023/05/16 06:56:11;;;;;;;4.70;1.20;;;10.90;99.90;;;11.25;100.00;98186.50;4925025;29;20485;-79
2023/05/16 06:58:40;;;;;;;1.37;1.27;;;10.80;99.90;;;11.27;100.00;98193.19;4926284;29;20474;-79
2023/05/16 07:01:08;;;;;;;1.73;1.47;;;10.80;99.90;;;11.26;100.00;98204.66;4925187;29;20471;-79
2023/05/16 07:03:39;;;;;;;1.40;1.27;;;10.80;99.90;;;11.28;100.00;98200.03;4925706;29;20497;-79
2023/05/16 07:06:08;;;;;;;1.50;1.30;;;10.70;99.90;;;11.32;100.00;98206.50;4926064;29;20494;-79
2023/05/16 07:08:37;;;;;;;1.53;1.43;;;10.80;99.90;;;11.28;100.00;98213.13;4926125;29;20471;-79
2023/05/16 07:11:06;;;;;;;8.33;1.47;;;10.70;99.90;;;11.26;100.00;98209.88;4926009;29;20525;-79
2023/05/16 07:13:37;;;;;;;3.10;1.17;;;10.80;99.90;;;11.20;100.00;98215.88;4925327;29;20473;-79
2023/05/16 07:16:07;;;;;;;5.33;1.67;;;10.70;99.90;;;11.24;100.00;98221.56;4924847;29;21016;-79
2023/05/16 07:18:37;;;;;;;1.33;1.23;;;10.70;99.90;;;11.19;100.00;98219.47;4926767;29;20475;-78
2023/05/16 07:21:06;;;;;;;1.90;1.47;;;10.70;99.90;;;11.23;100.00;98219.91;4927180;29;20961;-79
2023/05/16 07:23:35;;;;;;;1.37;1.27;;;10.70;99.90;;;11.15;100.00;98220.84;4929311;29;20938;-79
2023/05/16 07:26:04;;;;;;;1.67;1.50;;;10.70;99.90;;;11.20;100.00;98215.88;4929709;29;20516;-79
2023/05/16 07:28:32;;;;;;;1.37;1.20;;;10.70;99.90;;;11.19;100.00;98222.09;4928692;29;20468;-79
2023/05/16 07:31:01;;;;;;;1.47;1.37;;;10.70;99.90;;;11.21;100.00;98221.94;4928278;29;20525;-79
2023/05/16 07:33:29;;;;;;;1.33;1.23;;;10.70;99.90;;;11.17;100.00;98229.34;4929611;29;21043;-79
2023/05/16 07:36:00;;;;;;;1.20;1.10;;;10.60;99.90;;;11.15;100.00;98236.56;4929369;29;20880;-81
2023/05/16 07:38:43;;;;;;;1.33;1.23;;;10.70;99.90;;;11.21;100.00;98240.25;4929018;29;20477;-79
2023/05/16 07:41:12;;;;;;;1.97;1.37;;;10.70;99.90;;;11.26;100.00;98246.53;4929473;29;21102;-79
2023/05/16 07:43:41;;;;;;;2.53;1.17;;;10.80;99.90;;;11.22;100.00;98234.00;4929110;29;20502;-79
2023/05/16 07:46:11;;;;;;;1.40;1.20;;;10.70;99.90;;;11.27;100.00;98239.50;4928652;29;21284;-79
2023/05/16 07:48:41;;;;;;;1.20;1.10;;;10.70;99.90;;;11.29;100.00;98246.16;4929159;29;20494;-79
2023/05/16 07:51:11;;;;;;;3.37;1.10;;;10.70;99.90;;;11.33;100.00;98252.66;4928309;29;20517;-79
2023/05/16 07:53:40;;;;;;;2.20;1.33;;;10.80;99.90;;;11.22;100.00;98247.91;4929110;29;20471;-79
2023/05/16 07:56:09;;;;;;;1.20;1.10;;;10.80;99.90;;;11.26;100.00;98250.97;4929307;29;20896;-79
2023/05/16 07:58:38;;;;;;;1.73;1.40;;;10.70;99.90;;;11.25;100.00;98239.69;4929579;29;21135;-79
2023/05/16 08:01:06;;;;;;;1.90;1.60;;;10.70;99.90;;;11.20;100.00;98247.28;4928603;29;20473;-79
2023/05/16 08:03:36;;;;;;;1.67;1.57;;;10.70;99.90;;;11.18;100.00;98257.13;4927786;29;20545;-79
2023/05/16 08:06:06;;;;;;;2.90;1.80;;;10.70;99.90;;;11.20;100.00;98257.75;4928277;29;20808;-79
2023/05/16 08:08:36;;;;;;;3.87;1.80;;;10.60;99.90;;;11.13;100.00;98250.81;4928213;29;20474;-79
2023/05/16 08:11:05;;;;;;;1.73;1.63;;;10.60;99.90;;;11.09;100.00;98245.16;4928382;29;20473;-79
2023/05/16 08:13:34;;;;;;;2.00;1.57;;;10.60;99.90;;;11.11;100.00;98258.84;4927948;29;20554;-79
2023/05/16 08:16:03;;;;;;;1.90;1.53;;;10.70;99.90;;;11.09;100.00;98255.63;4927660;29;20962;-79
2023/05/16 08:18:32;;;;;;;4.50;2.70;;;10.60;99.90;;;11.11;100.00;98269.31;4927590;29;20481;-79
2023/05/16 08:21:02;;;;;;;2.33;2.13;;;10.60;99.90;;;11.06;100.00;98271.69;4928399;29;20478;-80
2023/05/16 08:23:30;;;;;;;12.50;2.60;;;10.60;99.90;;;10.98;100.00;98284.88;4928032;29;20471;-79
2023/05/16 08:26:00;;;;;;;5.00;3.10;;;10.60;99.90;;;10.89;100.00;98278.13;4927765;29;20494;-79
2023/05/16 08:28:29;;;;;;;4.13;2.53;;;10.50;99.90;;;10.90;100.00;98287.59;4928018;29;20502;-79
2023/05/16 08:30:58;;;;;;;6.23;2.33;;;10.50;99.90;;;10.75;100.00;98292.88;4927881;29;20973;-79
2023/05/16 08:33:27;;;;;;;3.53;2.20;;;10.50;99.90;;;10.76;100.00;98285.84;4927568;29;20490;-79
2023/05/16 08:35:56;;;;;;;12.23;2.60;;;10.40;99.90;;;10.72;100.00;98285.38;4929046;29;20477;-79
2023/05/16 08:38:25;;;;;;;4.47;2.33;;;10.30;99.90;;;10.60;100.00;98287.63;4927734;29;21016;-80
2023/05/16 08:40:54;;;;;;;5.83;2.40;;;10.30;99.90;;;10.58;100.00;98296.66;4927855;29;20470;-79
2023/05/16 08:43:24;;;;;;;7.77;3.30;;;10.20;99.90;;;10.55;100.00;98289.97;4927370;29;20482;-79
2023/05/16 08:45:53;;;;;;;11.13;2.63;;;10.30;99.90;;;10.51;100.00;98308.81;4928992;29;21041;-79
2023/05/16 08:48:26;;;;;;;11.63;3.13;;;10.20;99.90;;;10.47;100.00;98302.34;4928411;29;20470;-78
2023/05/16 08:50:55;;;;;;;5.17;2.20;;;10.10;99.90;;;10.49;100.00;98311.59;4926977;29;20462;-79
2023/05/16 08:53:32;;;;;;;14.20;2.90;;;10.10;99.90;;;10.54;100.00;98311.91;4928006;29;20467;-79
2023/05/16 08:56:03;;;;;;;7.40;2.30;;;10.00;99.90;;;10.59;100.00;98301.69;4927728;29;20475;-79
2023/05/16 08:58:34;;;;;;;10.50;2.60;;;10.00;99.90;;;10.64;100.00;98298.53;4927669;29;21021;-79
2023/05/16 09:01:07;;;;;;;6.30;2.53;;;10.10;99.90;;;10.66;100.00;98308.81;4926830;29;20470;-79
2023/05/16 09:03:37;;;;;;;5.67;2.60;;;10.10;99.90;;;10.71;100.00;98301.25;4926430;29;20475;-79
2023/05/16 09:06:07;;;;;;;4.53;2.20;;;10.10;99.90;;;10.78;100.00;98310.00;4927686;29;20838;-79
2023/05/16 09:08:35;;;;;;;6.00;1.97;;;10.20;99.90;;;10.86;100.00;98307.28;4927006;29;20561;-79
2023/05/16 09:11:04;;;;;;;8.13;2.43;;;10.30;99.90;;;10.85;100.00;98310.88;4926528;29;20481;-79
2023/05/16 09:13:35;;;;;;;5.40;1.80;;;10.30;99.90;;;10.87;100.00;98312.31;4927347;29;20474;-79
2023/05/16 09:16:12;;;;;;;9.30;1.87;;;10.40;99.90;;;10.94;100.00;98315.84;4927416;29;21003;-79
2023/05/16 09:18:44;;;;;;;2.90;1.83;;;10.40;99.90;;;10.95;100.00;98319.25;4925007;29;20466;-79
2023/05/16 09:21:14;;;;;;;18.63;2.30;;;10.40;99.90;;;10.88;100.00;98320.97;4925402;29;20557;-79
2023/05/16 09:23:45;;;;;;;4.13;1.83;;;10.40;99.90;;;10.81;100.00;98318.28;4923930;29;20577;-79
2023/05/16 09:26:13;;;;;;;6.10;1.57;;;10.30;99.90;;;10.68;100.00;98320.72;4923044;29;20467;-78
2023/05/16 09:28:44;;;;;;;8.63;2.00;;;10.30;99.90;;;10.79;100.00;98314.22;4923102;29;20463;-79
2023/05/16 09:31:25;;;;;;;6.20;2.00;;;10.30;99.90;;;10.86;100.00;98308.09;4927420;29;21065;-78
2023/05/16 09:33:56;;;;;;;6.20;1.60;;;10.30;99.90;;;10.97;100.00;98314.66;4926456;29;20494;-79
2023/05/16 09:36:25;;;;;;;12.43;2.13;;;10.40;99.90;;;11.02;100.00;98320.97;4927284;29;20476;-80
2023/05/16 09:38:54;;;;;;;3.30;1.90;;;10.60;99.90;;;11.07;100.00;98315.19;4928040;29;20502;-79
2023/05/16 09:41:24;;;;;;;6.40;1.90;;;10.50;99.90;;;11.15;100.00;98320.31;4927165;29;21028;-79
2023/05/16 09:43:55;;;;;;;7.20;2.23;;;10.60;99.90;;;11.23;100.00;98322.00;4925980;28;20459;-79
2023/05/16 09:46:27;;;;;;;5.30;1.80;;;10.60;99.90;;;11.21;100.00;98322.19;4925097;29;20506;-79
2023/05/16 09:48:56;;;;;;;8.00;2.00;;;10.60;99.90;;;11.25;100.00;98320.81;4926359;29;21034;-79
2023/05/16 09:51:27;;;;;;;12.43;1.83;;;10.60;99.90;;;11.36;100.00;98324.78;4925661;29;20532;-79
2023/05/16 09:53:58;;;;;;;20.07;2.20;;;10.80;99.90;;;11.37;100.00;98323.78;4925720;29;20470;-79
2023/05/16 09:56:29;;;;;;;9.47;2.40;;;10.80;99.90;;;11.40;100.00;98329.47;4926028;29;20553;-79
2023/05/16 09:58:59;;;;;;;7.37;1.80;;;10.90;99.90;;;11.39;100.00;98327.81;4926259;29;20494;-79
2023/05/16 10:01:28;;;;;;;6.60;2.20;;;11.00;99.90;;;11.44;100.00;98322.03;4926224;29;20470;-80
2023/05/16 10:03:57;;;;;;;6.60;2.10;;;10.90;99.90;;;11.48;100.00;98328.53;4926174;29;20557;-79
2023/05/16 10:06:26;;;;;;;5.77;2.00;;;10.90;99.90;;;11.55;100.00;98324.19;4926539;29;20503;-79
2023/05/16 10:08:55;;;;;;;6.30;2.03;;;11.00;99.90;;;11.60;100.00;98317.38;4926369;29;20454;-79
2023/05/16 10:11:26;;;;;;;6.00;1.70;;;11.10;99.90;;;11.70;100.00;98311.03;4927299;29;20466;-79
2023/05/16 10:13:55;;;;;;;8.17;3.30;;;11.10;99.90;;;11.78;100.00;98313.53;4925961;29;20477;-79
2023/05/16 10:16:27;;;;;;;7.23;1.77;;;11.20;99.90;;;11.84;100.00;98310.16;4926237;29;20537;-80
2023/05/16 10:18:56;;;;;;;4.73;1.30;;;11.20;99.90;;;11.94;100.00;98318.53;4928325;29;20467;-82
2023/05/16 10:21:28;;;;;;;6.30;2.10;;;11.20;99.90;;;12.01;100.00;98309.72;4926164;29;21068;-79
2023/05/16 10:24:03;;;;;;;3.13;1.50;;;11.40;99.90;;;12.07;100.00;98314.22;4925547;29;20458;-79